createdAt,value
2022-07-30T00:00:35.344Z,100986.83
2022-07-30T00:03:51.561Z,100991.05
2022-07-30T00:06:46.273Z,100991.00
2022-07-30T00:10:22.555Z,100989.58
2022-07-30T00:13:38.482Z,100980.95
2022-07-30T00:16:34.511Z,100981.24
2022-07-30T00:19:37.115Z,100977.89
2022-07-30T00:22:56.184Z,100977.29
2022-07-30T00:26:15.123Z,100975.30
2022-07-30T00:29:34.362Z,100973.64
2022-07-30T00:32:13.528Z,100969.19
2022-07-30T00:35:30.583Z,100967.16
2022-07-30T00:38:30.762Z,100961.55
2022-07-30T00:41:51.197Z,100956.70
2022-07-30T00:44:55.245Z,100956.94
2022-07-30T00:52:01.188Z,100945.64
2022-07-30T00:55:18.365Z,100949.51
2022-07-30T00:58:34.248Z,100941.71
2022-07-30T01:01:51.243Z,100942.67
2022-07-30T01:10:07.238Z,100943.83
2022-07-30T01:13:23.414Z,100946.73
2022-07-30T01:16:42.608Z,100950.29
2022-07-30T01:20:01.137Z,100947.63
2022-07-30T01:23:37.129Z,100940.77
2022-07-30T01:26:46.184Z,100941.14
2022-07-30T01:30:03.248Z,100931.59
2022-07-30T01:33:23.114Z,100933.17
2022-07-30T01:36:36.165Z,100926.95
2022-07-30T01:39:36.141Z,100918.14
2022-07-30T01:42:36.301Z,100910.88
2022-07-30T01:45:42.342Z,100911.77
2022-07-30T01:48:59.432Z,100897.54
2022-07-30T01:52:35.017Z,100877.79
2022-07-30T01:55:33.385Z,100865.17
2022-07-30T01:58:50.107Z,100861.75
2022-07-30T02:02:19.330Z,100853.83
2022-07-30T02:05:18.176Z,100857.02
2022-07-30T02:08:20.226Z,100865.30
2022-07-30T02:11:53.648Z,100866.74
2022-07-30T02:14:47.117Z,100868.38
2022-07-30T02:17:46.966Z,100875.50
2022-07-30T02:21:02.581Z,100868.20
2022-07-30T02:24:22.234Z,100857.46
2022-07-30T02:27:38.484Z,100865.34
2022-07-30T02:31:00.625Z,100865.80
2022-07-30T02:34:17.307Z,100863.77
2022-07-30T02:37:42.847Z,100864.55
2022-07-30T02:40:58.243Z,100865.66
2022-07-30T02:44:17.709Z,100869.38
2022-07-30T02:47:32.017Z,100871.57
2022-07-30T02:50:49.268Z,100881.88
2022-07-30T02:54:07.875Z,100879.17
2022-07-30T02:57:25.035Z,100884.39
2022-07-30T03:00:40.507Z,100886.84
2022-07-30T03:04:00.242Z,100876.97
2022-07-30T03:07:17.961Z,100880.63
2022-07-30T03:10:22.104Z,100886.93
2022-07-30T03:14:20.976Z,100888.88
2022-07-30T03:17:03.109Z,100891.63
2022-07-30T03:19:38.094Z,100887.95
2022-07-30T03:22:19.205Z,100878.77
2022-07-30T03:26:06.593Z,100871.14
2022-07-30T03:33:38.960Z,100870.70
2022-07-30T03:36:54.316Z,100874.02
2022-07-30T03:40:35.136Z,100869.17
2022-07-30T03:43:51.195Z,100861.67
2022-07-30T03:46:52.224Z,100855.64
2022-07-30T03:49:49.983Z,100857.23
2022-07-30T03:52:39.044Z,100857.61
2022-07-30T03:55:43.221Z,100861.80
2022-07-30T03:59:24.149Z,100862.15
2022-07-30T04:02:18.245Z,100865.15
2022-07-30T04:05:43.196Z,100866.52
2022-07-30T04:08:40.296Z,100861.95
2022-07-30T04:11:51.104Z,100861.60
2022-07-30T04:16:36.886Z,100861.02
2022-07-30T04:18:56.069Z,100865.00
2022-07-30T04:21:33.966Z,100863.08
2022-07-30T04:24:07.711Z,100853.35
2022-07-30T04:26:39.669Z,100849.84
2022-07-30T04:29:16.707Z,100845.13
2022-07-30T04:31:50.301Z,100852.27
2022-07-30T04:34:55.695Z,100844.92
2022-07-30T04:37:44.508Z,100847.85
2022-07-30T04:40:15.826Z,100848.19
2022-07-30T04:42:46.806Z,100851.11
2022-07-30T04:45:17.676Z,100846.95
2022-07-30T04:47:56.495Z,100848.67
2022-07-30T04:55:05.202Z,100851.17
2022-07-30T04:57:39.736Z,100848.04
2022-07-30T05:00:12.404Z,100848.34
2022-07-30T05:02:45.571Z,100846.92
2022-07-30T05:05:18.583Z,100844.02
2022-07-30T05:07:50.052Z,100840.67
2022-07-30T05:10:25.048Z,100836.05
2022-07-30T05:12:55.847Z,100838.89
2022-07-30T05:15:36.262Z,100833.65
2022-07-30T05:18:17.943Z,100834.25
2022-07-30T05:20:50.206Z,100829.81
2022-07-30T05:23:26.245Z,100827.96
2022-07-30T05:26:05.985Z,100825.45
2022-07-30T05:33:16.632Z,100819.27
2022-07-30T05:35:48.333Z,100819.88
2022-07-30T05:38:20.040Z,100820.47
2022-07-30T05:41:31.134Z,100816.52
2022-07-30T05:44:09.712Z,100816.58
2022-07-30T05:46:41.030Z,100813.31
2022-07-30T05:49:11.618Z,100817.36
2022-07-30T05:51:44.574Z,100813.42
2022-07-30T05:54:15.701Z,100813.85
2022-07-30T05:57:05.376Z,100816.48
2022-07-30T05:59:38.325Z,100816.35
2022-07-30T06:06:48.891Z,100813.71
2022-07-30T06:09:36.183Z,100818.50
2022-07-30T06:12:07.380Z,100824.44
2022-07-30T06:14:38.286Z,100824.98
2022-07-30T06:17:10.254Z,100824.15
2022-07-30T06:20:11.342Z,100833.24
2022-07-30T06:22:53.601Z,100829.96
2022-07-30T06:25:30.343Z,100825.83
2022-07-30T06:28:20.966Z,100826.23
2022-07-30T06:30:52.646Z,100826.21
2022-07-30T06:33:24.709Z,100823.08
2022-07-30T06:35:56.031Z,100823.33
2022-07-30T06:43:33.711Z,100809.48
2022-07-30T06:46:24.770Z,100805.44
2022-07-30T06:49:34.743Z,100805.29
2022-07-30T06:52:33.846Z,100802.73
2022-07-30T06:55:04.726Z,100803.20
2022-07-30T06:57:43.366Z,100797.44
2022-07-30T07:00:38.883Z,100802.09
2022-07-30T07:03:14.137Z,100803.78
2022-07-30T07:06:08.149Z,100798.65
2022-07-30T07:09:00.221Z,100796.63
2022-07-30T07:11:38.297Z,100794.53
2022-07-30T07:14:17.042Z,100791.59
2022-07-30T07:16:55.750Z,100787.92
2022-07-30T07:20:00.515Z,100789.38
2022-07-30T07:22:43.751Z,100792.09
2022-07-30T07:25:40.934Z,100789.35
2022-07-30T07:28:49.415Z,100791.67
2022-07-30T07:32:02.582Z,100787.05
2022-07-30T07:34:17.478Z,100789.27
2022-07-30T07:37:33.299Z,100785.49
2022-07-30T07:40:09.057Z,100774.70
2022-07-30T07:42:44.024Z,100771.26
2022-07-30T07:45:14.440Z,100771.62
2022-07-30T07:47:53.577Z,100773.13
2022-07-30T07:50:42.980Z,100765.02
2022-07-30T07:53:20.788Z,100763.34
2022-07-30T07:55:51.457Z,100759.21
2022-07-30T07:58:26.467Z,100760.21
2022-07-30T08:01:04.330Z,100760.61
2022-07-30T08:03:55.501Z,100761.14
2022-07-30T08:06:44.326Z,100759.52
2022-07-30T08:09:40.599Z,100758.60
2022-07-30T08:12:30.414Z,100760.27
2022-07-30T08:15:22.905Z,100759.88
2022-07-30T08:18:11.868Z,100762.98
2022-07-30T08:20:46.305Z,100757.71
2022-07-30T08:23:25.023Z,100754.17
2022-07-30T08:25:55.630Z,100755.14
2022-07-30T08:28:35.838Z,100752.98
2022-07-30T08:31:09.155Z,100752.27
2022-07-30T08:33:39.840Z,100752.66
2022-07-30T08:36:11.071Z,100748.48
2022-07-30T08:38:41.905Z,100746.63
2022-07-30T08:53:23.482Z,100735.48
2022-07-30T08:55:58.489Z,100737.79
2022-07-30T08:58:35.454Z,100736.86
2022-07-30T09:01:08.337Z,100738.48
2022-07-30T09:03:44.198Z,100738.23
2022-07-30T09:06:15.709Z,100737.91
2022-07-30T09:08:45.905Z,100733.02
2022-07-30T09:11:38.276Z,100741.25
2022-07-30T09:14:14.381Z,100743.40
2022-07-30T09:16:46.154Z,100737.15
2022-07-30T09:19:23.079Z,100736.62
2022-07-30T09:21:58.677Z,100740.27
2022-07-30T09:28:16.403Z,100740.61
2022-07-30T09:33:36.411Z,100740.16
2022-07-30T09:36:34.102Z,100740.16
2022-07-30T09:39:40.921Z,100739.50
2022-07-30T09:42:23.532Z,100740.52
2022-07-30T09:45:06.562Z,100741.58
2022-07-30T09:47:39.344Z,100739.30
2022-07-30T09:53:12.377Z,100742.13
2022-07-30T09:55:45.846Z,100741.30
2022-07-30T09:58:27.089Z,100744.50
2022-07-30T10:01:03.706Z,100740.16
2022-07-30T10:03:57.436Z,100746.35
2022-07-30T10:07:04.152Z,100745.36
2022-07-30T10:09:47.050Z,100745.05
2022-07-30T10:12:18.924Z,100744.55
2022-07-30T10:14:56.886Z,100744.22
2022-07-30T10:17:27.407Z,100740.87
2022-07-30T10:20:28.152Z,100744.77
2022-07-30T10:23:19.319Z,100742.73
2022-07-30T10:26:11.196Z,100743.81
2022-07-30T10:29:00.259Z,100738.04
2022-07-30T10:31:48.442Z,100737.71
2022-07-30T10:34:23.678Z,100737.38
2022-07-30T10:37:06.859Z,100735.98
2022-07-30T10:39:58.030Z,100735.84
2022-07-30T10:42:48.448Z,100742.71
2022-07-30T10:45:20.260Z,100740.48
2022-07-30T10:47:56.768Z,100740.36
2022-07-30T10:50:29.542Z,100740.73
2022-07-30T10:53:02.332Z,100739.21
2022-07-30T10:55:38.759Z,100736.63
2022-07-30T10:58:14.479Z,100738.79
2022-07-30T11:00:54.318Z,100739.38
2022-07-30T11:03:41.673Z,100737.57
2022-07-30T11:06:24.039Z,100733.63
2022-07-30T11:08:57.171Z,100732.48
2022-07-30T11:12:01.015Z,100734.39
2022-07-30T11:14:21.744Z,100728.38
2022-07-30T11:17:20.495Z,100725.14
2022-07-30T11:20:07.221Z,100720.48
2022-07-30T11:22:45.103Z,100715.98
2022-07-30T11:25:49.938Z,100719.02
2022-07-30T11:28:43.999Z,100718.86
2022-07-30T11:31:36.853Z,100715.60
2022-07-30T11:34:20.473Z,100711.42
2022-07-30T11:37:22.211Z,100706.55
2022-07-30T11:39:58.189Z,100704.63
2022-07-30T11:42:36.913Z,100700.79
2022-07-30T11:45:33.829Z,100694.33
2022-07-30T11:48:12.940Z,100697.67
2022-07-30T11:50:44.330Z,100697.52
2022-07-30T11:53:22.684Z,100695.77
2022-07-30T11:56:00.809Z,100692.86
2022-07-30T11:58:34.420Z,100689.90
2022-07-30T12:01:09.227Z,100688.69
2022-07-30T12:03:43.334Z,100685.73
2022-07-30T12:06:18.522Z,100685.70
2022-07-30T12:08:58.500Z,100686.14
2022-07-30T12:11:37.702Z,100688.23
2022-07-30T12:14:08.125Z,100688.97
2022-07-30T12:16:38.473Z,100691.83
2022-07-30T12:19:09.645Z,100694.48
2022-07-30T12:21:40.221Z,100691.61
2022-07-30T12:24:12.065Z,100687.98
2022-07-30T12:26:42.886Z,100689.45
2022-07-30T12:29:14.359Z,100687.45
2022-07-30T12:31:46.625Z,100689.31
2022-07-30T12:34:28.185Z,100684.54
2022-07-30T12:37:10.480Z,100686.58
2022-07-30T12:39:41.165Z,100685.13
2022-07-30T12:42:22.295Z,100686.81
2022-07-30T12:44:52.710Z,100685.91
2022-07-30T12:47:31.064Z,100683.86
2022-07-30T12:50:06.610Z,100682.14
2022-07-30T12:52:38.062Z,100678.34
2022-07-30T12:55:14.469Z,100677.14
2022-07-30T12:57:55.938Z,100672.87
2022-07-30T13:00:29.444Z,100671.77
2022-07-30T13:03:00.786Z,100665.47
2022-07-30T13:05:51.166Z,100668.85
2022-07-30T13:08:48.789Z,100667.15
2022-07-30T13:11:20.480Z,100667.75
2022-07-30T13:13:52.374Z,100661.23
2022-07-30T13:16:23.540Z,100662.11
2022-07-30T13:18:53.955Z,100656.70
2022-07-30T13:21:24.309Z,100651.67
2022-07-30T13:23:54.905Z,100648.88
2022-07-30T13:26:25.693Z,100646.27
2022-07-30T13:29:01.282Z,100643.80
2022-07-30T13:31:43.122Z,100641.52
2022-07-30T13:34:14.525Z,100638.88
2022-07-30T13:36:45.255Z,100638.41
2022-07-30T13:39:15.700Z,100633.43
2022-07-30T13:41:46.247Z,100628.04
2022-07-30T13:44:16.780Z,100624.52
2022-07-30T13:46:47.801Z,100617.65
2022-07-30T13:49:18.251Z,100610.85
2022-07-30T13:51:48.916Z,100608.20
2022-07-30T13:54:19.665Z,100605.63
2022-07-30T13:56:50.082Z,100601.35
2022-07-30T13:59:20.701Z,100599.11
2022-07-30T14:01:51.367Z,100595.45
2022-07-30T14:04:21.874Z,100594.42
2022-07-30T14:06:52.598Z,100591.35
2022-07-30T14:09:22.923Z,100584.13
2022-07-30T14:11:53.708Z,100586.13
2022-07-30T14:14:24.546Z,100580.61
2022-07-30T14:16:55.083Z,100577.48
2022-07-30T14:19:26.012Z,100577.79
2022-07-30T14:21:56.674Z,100572.19
2022-07-30T14:24:27.585Z,100568.33
2022-07-30T14:26:58.839Z,100567.61
2022-07-30T14:29:29.831Z,100565.51
2022-07-30T14:32:00.356Z,100561.08
2022-07-30T14:34:31.055Z,100560.80
2022-07-30T14:37:02.858Z,100561.41
2022-07-30T14:39:35.398Z,100566.83
2022-07-30T14:42:06.804Z,100563.63
2022-07-30T14:44:37.379Z,100563.27
2022-07-30T14:47:08.429Z,100560.65
2022-07-30T14:49:39.404Z,100558.05
2022-07-30T14:52:10.159Z,100559.80
2022-07-30T14:54:40.724Z,100554.91
2022-07-30T14:57:11.224Z,100557.56
2022-07-30T14:59:41.796Z,100555.19
2022-07-30T15:02:12.293Z,100552.80
2022-07-30T15:04:42.793Z,100552.29
2022-07-30T15:07:13.547Z,100550.04
2022-07-30T15:09:45.134Z,100545.10
2022-07-30T15:12:23.604Z,100548.69
2022-07-30T15:14:57.771Z,100545.89
2022-07-30T15:21:02.795Z,100547.21
2022-07-30T15:23:33.704Z,100546.74
2022-07-30T15:26:04.706Z,100545.70
2022-07-30T15:28:35.279Z,100541.56
2022-07-30T15:31:06.058Z,100540.55
2022-07-30T15:33:42.194Z,100539.16
2022-07-30T15:36:13.881Z,100539.38
2022-07-30T15:38:44.934Z,100537.73
2022-07-30T15:41:19.350Z,100537.73
2022-07-30T15:43:49.961Z,100534.50
2022-07-30T15:49:37.209Z,100539.54
2022-07-30T15:52:08.891Z,100534.23
2022-07-30T15:54:39.434Z,100535.63
2022-07-30T15:57:10.362Z,100532.55
2022-07-30T15:59:41.329Z,100532.07
2022-07-30T16:02:13.364Z,100527.19
2022-07-30T16:04:44.220Z,100529.79
2022-07-30T16:07:19.024Z,100528.02
2022-07-30T16:09:49.783Z,100528.20
2022-07-30T16:12:20.966Z,100528.42
2022-07-30T16:14:56.591Z,100530.39
2022-07-30T16:17:29.470Z,100528.71
2022-07-30T16:19:59.834Z,100521.12
2022-07-30T16:22:30.576Z,100517.50
2022-07-30T16:25:01.095Z,100519.15
2022-07-30T16:27:31.994Z,100514.91
2022-07-30T16:30:02.416Z,100517.47
2022-07-30T16:32:33.255Z,100518.45
2022-07-30T16:35:04.068Z,100521.56
2022-07-30T16:37:34.946Z,100524.66
2022-07-30T16:40:06.374Z,100523.05
2022-07-30T16:42:36.826Z,100525.36
2022-07-30T16:45:08.302Z,100522.98
2022-07-30T16:47:38.795Z,100525.16
2022-07-30T16:50:10.205Z,100521.80
2022-07-30T16:52:41.194Z,100522.27
2022-07-30T16:55:12.246Z,100517.34
2022-07-30T16:57:42.985Z,100515.02
2022-07-30T17:00:15.061Z,100512.89
2022-07-30T17:02:46.364Z,100513.20
2022-07-30T17:05:17.358Z,100512.59
2022-07-30T17:07:48.545Z,100512.59
2022-07-30T17:10:25.660Z,100518.38
2022-07-30T17:12:57.746Z,100513.65
2022-07-30T17:15:32.512Z,100514.61
2022-07-30T17:18:03.835Z,100517.25
2022-07-30T17:20:34.595Z,100512.36
2022-07-30T17:23:04.944Z,100512.95
2022-07-30T17:25:35.589Z,100510.91
2022-07-30T17:28:06.449Z,100514.51
2022-07-30T17:30:37.352Z,100514.09
2022-07-30T17:33:07.833Z,100514.21
2022-07-30T17:35:38.428Z,100517.82
2022-07-30T17:38:09.009Z,100512.66
2022-07-30T17:40:39.487Z,100512.26
2022-07-30T17:43:14.405Z,100513.81
2022-07-30T17:45:46.390Z,100513.35
2022-07-30T17:48:18.523Z,100513.69
2022-07-30T17:50:49.080Z,100507.54
2022-07-30T17:53:19.789Z,100509.14
2022-07-30T17:55:57.959Z,100505.30
2022-07-30T17:58:29.059Z,100504.27
2022-07-30T18:01:03.018Z,100505.58
2022-07-30T18:03:33.991Z,100506.70
2022-07-30T18:06:03.966Z,100506.56
2022-07-30T18:08:35.084Z,100512.06
2022-07-30T18:11:05.669Z,100518.58
2022-07-30T18:13:36.990Z,100517.43
2022-07-30T18:16:08.303Z,100515.48
2022-07-30T18:18:39.292Z,100516.88
2022-07-30T18:21:10.932Z,100515.31
2022-07-30T18:23:41.611Z,100508.61
2022-07-30T18:26:12.596Z,100507.21
2022-07-30T18:28:43.338Z,100504.39
2022-07-30T18:31:13.782Z,100508.27
2022-07-30T18:33:44.540Z,100507.09
2022-07-30T18:36:15.455Z,100507.50
2022-07-30T18:38:51.249Z,100500.22
2022-07-30T18:41:22.919Z,100500.64
2022-07-30T18:43:53.461Z,100501.06
2022-07-30T18:46:24.905Z,100503.09
2022-07-30T18:48:55.776Z,100508.45
2022-07-30T18:51:27.521Z,100510.22
2022-07-30T18:53:59.925Z,100510.63
2022-07-30T18:56:30.602Z,100511.84
2022-07-30T18:59:01.460Z,100512.65
2022-07-30T19:01:33.026Z,100511.33
2022-07-30T19:04:03.668Z,100520.48
2022-07-30T19:06:38.333Z,100524.27
2022-07-30T19:09:16.735Z,100525.09
2022-07-30T19:11:48.486Z,100525.95
2022-07-30T19:14:21.672Z,100526.44
2022-07-30T19:16:52.918Z,100529.36
2022-07-30T19:19:23.282Z,100532.44
2022-07-30T19:21:53.973Z,100530.35
2022-07-30T19:24:27.727Z,100534.61
2022-07-30T19:26:59.584Z,100535.90
2022-07-30T19:29:32.822Z,100535.46
2022-07-30T19:32:03.803Z,100537.23
2022-07-30T19:34:35.130Z,100540.27
2022-07-30T19:37:06.127Z,100539.23
2022-07-30T19:39:36.611Z,100534.31
2022-07-30T19:42:07.824Z,100533.92
2022-07-30T19:44:41.129Z,100532.21
2022-07-30T19:47:11.699Z,100532.16
2022-07-30T19:49:46.555Z,100527.13
2022-07-30T19:52:23.249Z,100531.31
2022-07-30T19:54:56.222Z,100529.39
2022-07-30T19:57:53.112Z,100530.92
2022-07-30T20:00:24.556Z,100531.14
2022-07-30T20:02:55.933Z,100533.85
2022-07-30T20:05:58.411Z,100531.45
2022-07-30T20:08:38.809Z,100523.60
2022-07-30T20:11:08.966Z,100523.78
2022-07-30T20:13:45.058Z,100521.91
2022-07-30T20:16:18.560Z,100524.21
2022-07-30T20:18:53.064Z,100523.13
2022-07-30T20:21:55.877Z,100525.55
2022-07-30T20:24:18.225Z,100526.42
2022-07-30T20:26:49.299Z,100525.70
2022-07-30T20:29:20.905Z,100522.52
2022-07-30T20:31:52.179Z,100523.03
2022-07-30T20:34:25.877Z,100526.36
2022-07-30T20:36:57.416Z,100520.32
2022-07-30T20:39:28.297Z,100526.96
2022-07-30T20:42:21.839Z,100529.98
2022-07-30T20:44:57.266Z,100526.62
2022-07-30T20:47:38.051Z,100526.00
2022-07-30T20:50:12.003Z,100525.27
2022-07-30T20:52:46.562Z,100521.79
2022-07-30T20:55:18.326Z,100520.34
2022-07-30T20:57:59.351Z,100515.93
2022-07-30T21:00:37.850Z,100518.92
2022-07-30T21:03:13.589Z,100522.95
2022-07-30T21:05:46.304Z,100524.60
2022-07-30T21:08:17.306Z,100524.20
2022-07-30T21:10:48.205Z,100518.00
2022-07-30T21:13:18.683Z,100516.62
2022-07-30T21:16:01.897Z,100515.52
2022-07-30T21:18:34.017Z,100512.73
2022-07-30T21:21:05.467Z,100516.83
2022-07-30T21:23:36.285Z,100519.26
2022-07-30T21:26:11.834Z,100521.35
2022-07-30T21:28:44.308Z,100520.99
2022-07-30T21:31:14.778Z,100521.15
2022-07-30T21:33:45.489Z,100521.33
2022-07-30T21:36:15.966Z,100520.39
2022-07-30T21:38:46.424Z,100523.29
2022-07-30T21:41:19.096Z,100520.40
2022-07-30T21:44:10.058Z,100523.80
2022-07-30T21:46:41.048Z,100521.95
2022-07-30T21:49:12.383Z,100527.48
2022-07-30T21:51:42.766Z,100526.95
2022-07-30T21:54:26.507Z,100528.01
2022-07-30T21:57:00.330Z,100529.60
2022-07-30T21:59:30.789Z,100528.40
2022-07-30T22:02:01.788Z,100526.84
2022-07-30T22:04:32.618Z,100527.41
2022-07-30T22:07:03.356Z,100525.54
2022-07-30T22:09:34.753Z,100527.14
2022-07-30T22:12:09.944Z,100525.88
2022-07-30T22:14:43.670Z,100522.20
2022-07-30T22:17:23.602Z,100524.31
2022-07-30T22:20:08.857Z,100522.20
2022-07-30T22:22:42.448Z,100525.36
2022-07-30T22:25:13.217Z,100520.98
2022-07-30T22:27:56.333Z,100525.39
2022-07-30T22:30:30.796Z,100522.27
2022-07-30T22:33:21.326Z,100519.08
2022-07-30T22:35:51.924Z,100515.23
2022-07-30T22:38:22.573Z,100508.61
2022-07-30T22:40:55.367Z,100515.40
2022-07-30T22:43:33.319Z,100513.13
2022-07-30T22:46:27.225Z,100517.35
2022-07-30T22:49:01.870Z,100515.52
2022-07-30T22:51:58.762Z,100511.94
2022-07-30T22:54:23.161Z,100511.91
2022-07-30T22:56:53.894Z,100512.75
2022-07-30T22:59:58.682Z,100512.21
2022-07-30T23:02:15.807Z,100514.45
2022-07-30T23:04:48.484Z,100511.10
2022-07-30T23:07:20.631Z,100506.93
2022-07-30T23:09:53.945Z,100506.95
2022-07-30T23:12:24.872Z,100502.95
2022-07-30T23:14:55.802Z,100502.90
2022-07-30T23:17:28.544Z,100502.09
2022-07-30T23:19:59.164Z,100499.96
2022-07-30T23:22:30.134Z,100499.11
2022-07-30T23:25:00.514Z,100494.62
2022-07-30T23:27:31.134Z,100492.38
2022-07-30T23:30:01.680Z,100492.23
2022-07-30T23:32:32.111Z,100491.02
2022-07-30T23:35:02.327Z,100487.61
2022-07-30T23:37:37.978Z,100487.73
2022-07-30T23:40:20.613Z,100485.05
2022-07-30T23:42:52.352Z,100485.64
2022-07-30T23:45:22.893Z,100485.06
2022-07-30T23:48:01.263Z,100486.89
2022-07-30T23:50:34.650Z,100480.17
2022-07-30T23:53:06.600Z,100480.42
2022-07-30T23:55:38.357Z,100478.57
2022-07-30T23:58:09.886Z,100477.92
